createdAt,value
2024-04-26T00:00:39.689Z,23.09
2024-04-26T00:01:39.723Z,23.09
2024-04-26T00:02:39.893Z,23.09
2024-04-26T00:03:39.965Z,23.09
2024-04-26T00:04:40.004Z,23.08
2024-04-26T00:05:40.081Z,23.09
2024-04-26T00:06:40.064Z,23.08
2024-04-26T00:07:40.178Z,23.08
2024-04-26T00:08:40.277Z,23.08
2024-04-26T00:09:40.309Z,23.08
2024-04-26T00:10:40.295Z,23.07
2024-04-26T00:11:40.347Z,23.08
2024-04-26T00:12:40.380Z,23.08
2024-04-26T00:13:40.457Z,23.08
2024-04-26T00:14:40.460Z,23.07
2024-04-26T00:15:40.506Z,23.08
2024-04-26T00:16:40.576Z,23.07
2024-04-26T00:17:40.603Z,23.07
2024-04-26T00:18:40.606Z,23.07
2024-04-26T00:19:40.618Z,23.07
2024-04-26T00:20:40.726Z,23.06
2024-04-26T00:21:40.691Z,23.06
2024-04-26T00:22:40.729Z,23.06
2024-04-26T00:23:40.872Z,23.06
2024-04-26T00:24:40.796Z,23.06
2024-04-26T00:25:40.810Z,23.06
2024-04-26T00:26:44.418Z,23.06
2024-04-26T00:27:40.876Z,23.06
2024-04-26T00:28:40.936Z,23.06
2024-04-26T00:29:40.906Z,23.06
2024-04-26T00:30:40.892Z,23.06
2024-04-26T00:31:40.903Z,23.06
2024-04-26T00:32:41.040Z,23.06
2024-04-26T00:33:41.108Z,23.05
2024-04-26T00:34:40.921Z,23.05
2024-04-26T00:35:40.973Z,23.05
2024-04-26T00:36:40.895Z,23.04
2024-04-26T00:37:40.937Z,23.05
2024-04-26T00:38:40.927Z,23.05
2024-04-26T00:39:40.925Z,23.04
2024-04-26T00:40:40.909Z,23.05
2024-04-26T00:41:40.963Z,23.05
2024-04-26T00:42:40.916Z,23.04
2024-04-26T00:43:40.931Z,23.04
2024-04-26T00:44:40.964Z,23.04
2024-04-26T00:45:40.930Z,23.04
2024-04-26T00:46:40.953Z,23.04
2024-04-26T00:47:40.988Z,23.04
2024-04-26T00:48:41.137Z,23.04
2024-04-26T00:49:40.916Z,23.04
2024-04-26T00:50:41.023Z,23.03
2024-04-26T00:51:40.995Z,23.03
2024-04-26T00:52:41.003Z,23.04
2024-04-26T00:53:41.062Z,23.03
2024-04-26T00:54:41.010Z,23.02
2024-04-26T00:55:41.023Z,23.02
2024-04-26T00:56:41.032Z,23.02
2024-04-26T00:57:42.547Z,23.02
2024-04-26T00:58:41.030Z,23.03
2024-04-26T00:59:41.137Z,23.02
2024-04-26T01:00:41.106Z,23.02
2024-04-26T01:01:41.098Z,23.02
2024-04-26T01:02:41.113Z,23.01
2024-04-26T01:03:41.109Z,23.02
2024-04-26T01:04:41.092Z,23.01
2024-04-26T01:05:41.110Z,23.01
2024-04-26T01:06:41.094Z,23.01
2024-04-26T01:07:41.084Z,23.00
2024-04-26T01:08:41.106Z,23.01
2024-04-26T01:09:41.118Z,23.01
2024-04-26T01:10:41.103Z,23.00
2024-04-26T01:11:41.170Z,23.00
2024-04-26T01:12:41.176Z,22.99
2024-04-26T01:13:41.242Z,23.00
2024-04-26T01:14:41.326Z,23.00
2024-04-26T01:15:41.305Z,23.00
2024-04-26T01:16:41.308Z,22.99
2024-04-26T01:17:41.494Z,22.99
2024-04-26T01:18:41.491Z,22.99
2024-04-26T01:19:41.459Z,23.00
2024-04-26T01:20:41.516Z,23.00
2024-04-26T01:21:41.546Z,22.99
2024-04-26T01:22:41.616Z,22.99
2024-04-26T01:23:41.617Z,22.99
2024-04-26T01:24:41.663Z,22.99
2024-04-26T01:25:41.701Z,22.98
2024-04-26T01:26:41.781Z,22.98
2024-04-26T01:27:41.742Z,22.99
2024-04-26T01:28:41.819Z,22.98
2024-04-26T01:29:41.911Z,22.98
2024-04-26T01:30:41.909Z,22.98
2024-04-26T01:31:41.945Z,22.98
2024-04-26T01:32:42.005Z,22.97
2024-04-26T01:33:42.047Z,22.97
2024-04-26T01:34:42.050Z,22.98
2024-04-26T01:35:42.115Z,22.97
2024-04-26T01:36:42.153Z,22.97
2024-04-26T01:37:42.185Z,22.97
2024-04-26T01:38:42.279Z,22.97
2024-04-26T01:39:42.267Z,22.97
2024-04-26T01:40:42.314Z,22.97
2024-04-26T01:41:42.466Z,22.97
2024-04-26T01:42:42.459Z,22.97
2024-04-26T01:43:42.519Z,22.97
2024-04-26T01:44:42.624Z,22.96
2024-04-26T01:45:42.648Z,22.96
2024-04-26T01:46:42.729Z,22.95
2024-04-26T01:47:42.891Z,22.96
2024-04-26T01:48:42.965Z,22.97
2024-04-26T01:49:42.911Z,22.95
2024-04-26T01:50:43.030Z,22.96
2024-04-26T01:51:43.077Z,22.95
2024-04-26T01:52:43.146Z,22.95
2024-04-26T01:53:43.226Z,22.96
2024-04-26T01:54:43.320Z,22.95
2024-04-26T01:55:43.330Z,22.95
2024-04-26T01:56:43.459Z,22.95
2024-04-26T01:57:43.480Z,22.95
2024-04-26T01:58:43.539Z,22.95
2024-04-26T01:59:43.634Z,22.94
2024-04-26T02:00:43.694Z,22.94
2024-04-26T02:01:43.724Z,22.95
2024-04-26T02:02:44.085Z,22.95
2024-04-26T02:03:44.002Z,22.94
2024-04-26T02:04:43.902Z,22.94
2024-04-26T02:05:44.141Z,22.95
2024-04-26T02:06:44.025Z,22.95
2024-04-26T02:07:44.087Z,22.93
2024-04-26T02:08:44.254Z,22.94
2024-04-26T02:09:44.221Z,22.94
2024-04-26T02:10:44.344Z,22.94
2024-04-26T02:11:44.509Z,22.93
2024-04-26T02:12:44.419Z,22.93
2024-04-26T02:13:44.504Z,22.94
2024-04-26T02:14:44.627Z,22.93
2024-04-26T02:15:44.633Z,22.93
2024-04-26T02:16:44.725Z,22.93
2024-04-26T02:17:44.879Z,22.93
2024-04-26T02:18:44.984Z,22.93
2024-04-26T02:19:44.860Z,22.92
2024-04-26T02:20:44.995Z,22.93
2024-04-26T02:21:45.026Z,22.92
2024-04-26T02:22:45.059Z,22.92
2024-04-26T02:23:45.176Z,22.92
2024-04-26T02:24:45.205Z,22.92
2024-04-26T02:25:45.271Z,22.92
2024-04-26T02:26:45.369Z,22.92
2024-04-26T02:27:45.398Z,22.92
2024-04-26T02:28:45.483Z,22.91
2024-04-26T02:29:45.591Z,22.92
2024-04-26T02:30:45.608Z,22.92
2024-04-26T02:31:45.678Z,22.91
2024-04-26T02:32:45.827Z,22.91
2024-04-26T02:33:46.075Z,22.91
2024-04-26T02:34:45.883Z,22.91
2024-04-26T02:35:46.004Z,22.91
2024-04-26T02:36:45.968Z,22.91
2024-04-26T02:37:46.048Z,22.90
2024-04-26T02:38:46.164Z,22.91
2024-04-26T02:39:46.223Z,22.90
2024-04-26T02:40:46.269Z,22.90
2024-04-26T02:41:46.406Z,22.90
2024-04-26T02:42:46.410Z,22.90
2024-04-26T02:43:46.494Z,22.90
2024-04-26T02:44:46.551Z,22.90
2024-04-26T02:45:46.610Z,22.90
2024-04-26T02:46:46.742Z,22.90
2024-04-26T02:47:46.882Z,22.90
2024-04-26T02:48:46.984Z,22.89
2024-04-26T02:49:46.854Z,22.90
2024-04-26T02:50:46.942Z,22.89
2024-04-26T02:51:46.983Z,22.90
2024-04-26T02:52:47.044Z,22.89
2024-04-26T02:53:47.183Z,22.89
2024-04-26T02:54:47.192Z,22.89
2024-04-26T02:55:47.260Z,22.89
2024-04-26T02:56:47.316Z,22.89
2024-04-26T02:57:47.331Z,22.88
2024-04-26T02:58:47.441Z,22.88
2024-04-26T02:59:47.567Z,22.89
2024-04-26T03:00:47.626Z,22.88
2024-04-26T03:01:47.688Z,22.88
2024-04-26T03:02:47.696Z,22.88
2024-04-26T03:03:47.864Z,22.88
2024-04-26T03:04:47.834Z,22.88
2024-04-26T03:05:47.928Z,22.88
2024-04-26T03:06:47.947Z,22.88
2024-04-26T03:07:48.063Z,22.87
2024-04-26T03:08:48.210Z,22.87
2024-04-26T03:09:48.186Z,22.88
2024-04-26T03:10:49.706Z,22.88
2024-04-26T03:11:48.443Z,22.87
2024-04-26T03:12:48.403Z,22.87
2024-04-26T03:13:48.408Z,22.87
2024-04-26T03:14:48.516Z,22.87
2024-04-26T03:15:48.456Z,22.87
2024-04-26T03:16:48.618Z,22.87
2024-04-26T03:17:48.656Z,22.87
2024-04-26T03:18:48.901Z,22.86
2024-04-26T03:19:48.655Z,22.87
2024-04-26T03:20:48.787Z,22.87
2024-04-26T03:21:48.785Z,22.86
2024-04-26T03:22:48.880Z,22.86
2024-04-26T03:23:48.953Z,22.86
2024-04-26T03:24:49.017Z,22.86
2024-04-26T03:25:49.061Z,22.85
2024-04-26T03:26:49.200Z,22.85
2024-04-26T03:27:49.228Z,22.85
2024-04-26T03:28:49.324Z,22.85
2024-04-26T03:29:49.375Z,22.85
2024-04-26T03:30:49.438Z,22.85
2024-04-26T03:31:49.553Z,22.85
2024-04-26T03:32:49.608Z,22.84
2024-04-26T03:33:49.804Z,22.85
2024-04-26T03:34:49.740Z,22.84
2024-04-26T03:35:49.915Z,22.84
2024-04-26T03:36:49.840Z,22.83
2024-04-26T03:37:49.933Z,22.84
2024-04-26T03:38:50.032Z,22.84
2024-04-26T03:39:50.069Z,22.84
2024-04-26T03:40:50.158Z,22.84
2024-04-26T03:41:50.284Z,22.83
2024-04-26T03:42:50.382Z,22.84
2024-04-26T03:43:50.393Z,22.83
2024-04-26T03:44:50.515Z,22.84
2024-04-26T03:45:50.605Z,22.83
2024-04-26T03:46:50.708Z,22.83
2024-04-26T03:47:50.799Z,22.83
2024-04-26T03:48:51.173Z,22.83
2024-04-26T03:49:50.859Z,22.83
2024-04-26T03:50:50.879Z,22.83
2024-04-26T03:51:50.929Z,22.82
2024-04-26T03:52:50.891Z,22.83
2024-04-26T03:53:50.931Z,22.82
2024-04-26T03:54:51.054Z,22.82
2024-04-26T03:55:50.977Z,22.83
2024-04-26T03:56:51.018Z,22.82
2024-04-26T03:57:51.030Z,22.82
2024-04-26T03:58:51.076Z,22.82
2024-04-26T03:59:51.139Z,22.82
2024-04-26T04:00:53.143Z,22.82
2024-04-26T04:01:51.158Z,22.82
2024-04-26T04:02:51.243Z,22.82
2024-04-26T04:03:51.525Z,22.81
2024-04-26T04:04:51.363Z,22.82
2024-04-26T04:05:51.525Z,22.81
2024-04-26T04:06:51.437Z,22.81
2024-04-26T04:07:51.552Z,22.81
2024-04-26T04:08:51.696Z,22.81
2024-04-26T04:09:51.713Z,22.81
2024-04-26T04:10:51.730Z,22.81
2024-04-26T04:11:51.910Z,22.82
2024-04-26T04:12:51.966Z,22.81
2024-04-26T04:13:51.981Z,22.81
2024-04-26T04:14:52.144Z,22.81
2024-04-26T04:15:52.118Z,22.81
2024-04-26T04:16:52.210Z,22.81
2024-04-26T04:17:52.380Z,22.81
2024-04-26T04:18:52.441Z,22.81
2024-04-26T04:19:52.400Z,22.81
2024-04-26T04:20:52.544Z,22.81
2024-04-26T04:21:52.576Z,22.81
2024-04-26T04:22:52.614Z,22.81
2024-04-26T04:23:52.732Z,22.82
2024-04-26T04:24:52.749Z,22.82
2024-04-26T04:25:52.868Z,22.81
2024-04-26T04:26:52.991Z,22.81
2024-04-26T04:27:53.001Z,22.82
2024-04-26T04:28:53.155Z,22.81
2024-04-26T04:29:53.211Z,22.81
2024-04-26T04:30:53.201Z,22.82
2024-04-26T04:31:53.320Z,22.81
2024-04-26T04:32:53.510Z,22.82
2024-04-26T04:33:53.627Z,22.82
2024-04-26T04:34:53.664Z,22.82
2024-04-26T04:35:53.599Z,22.83
2024-04-26T04:36:53.698Z,22.82
2024-04-26T04:37:53.741Z,22.83
2024-04-26T04:39:01.192Z,22.80
2024-04-26T04:40:01.094Z,22.82
2024-04-26T04:41:01.064Z,22.82
2024-04-26T04:42:01.217Z,22.83
2024-04-26T04:43:01.072Z,22.85
2024-04-26T04:44:01.070Z,22.84
2024-04-26T04:45:01.210Z,22.85
2024-04-26T04:46:01.086Z,22.85
2024-04-26T04:47:01.135Z,22.85
2024-04-26T04:48:01.309Z,22.87
2024-04-26T04:49:01.268Z,22.87
2024-04-26T04:50:01.123Z,22.87
2024-04-26T04:51:01.133Z,22.87
2024-04-26T04:52:01.106Z,22.88
2024-04-26T04:53:01.080Z,22.88
2024-04-26T04:54:01.160Z,22.89
2024-04-26T04:55:01.109Z,22.89
2024-04-26T04:56:01.079Z,22.89
2024-04-26T04:57:01.272Z,22.90
2024-04-26T04:58:01.088Z,22.90
2024-04-26T04:59:01.110Z,22.90
2024-04-26T05:00:01.283Z,22.91
2024-04-26T05:01:01.119Z,22.91
2024-04-26T05:02:01.130Z,22.92
2024-04-26T05:03:01.224Z,22.92
2024-04-26T05:04:01.327Z,22.92
2024-04-26T05:05:01.304Z,22.93
2024-04-26T05:06:01.154Z,22.93
2024-04-26T05:07:01.105Z,22.93
2024-04-26T05:08:01.196Z,22.94
2024-04-26T05:09:01.184Z,22.94
2024-04-26T05:10:01.130Z,22.95
2024-04-26T05:11:01.107Z,22.95
2024-04-26T05:12:01.177Z,22.95
2024-04-26T05:13:01.206Z,22.95
2024-04-26T05:14:01.148Z,22.95
2024-04-26T05:15:01.211Z,22.96
2024-04-26T05:16:01.118Z,22.96
2024-04-26T05:17:01.205Z,22.97
2024-04-26T05:18:01.305Z,22.97
2024-04-26T05:19:01.236Z,22.96
2024-04-26T05:20:01.132Z,22.97
2024-04-26T05:21:01.207Z,22.97
2024-04-26T05:22:01.111Z,22.98
2024-04-26T05:23:01.180Z,22.97
2024-04-26T05:24:01.400Z,22.98
2024-04-26T05:25:01.307Z,22.98
2024-04-26T05:26:01.340Z,22.99
2024-04-26T05:27:01.498Z,22.99
2024-04-26T05:28:01.464Z,22.99
2024-04-26T05:29:01.611Z,22.99
2024-04-26T05:30:01.636Z,22.99
2024-04-26T05:31:01.677Z,23.00
2024-04-26T05:32:01.774Z,23.00
2024-04-26T05:33:01.998Z,23.01
2024-04-26T05:34:02.028Z,23.01
2024-04-26T05:35:01.992Z,23.01
2024-04-26T05:36:02.010Z,23.00
2024-04-26T05:37:02.077Z,22.97
2024-04-26T05:38:02.158Z,22.87
2024-04-26T05:39:02.325Z,22.70
2024-04-26T05:40:02.442Z,22.56
2024-04-26T05:41:02.508Z,22.49
2024-04-26T05:42:02.685Z,22.49
2024-04-26T05:43:02.726Z,22.51
2024-04-26T05:44:02.844Z,22.54
2024-04-26T05:45:02.993Z,22.58
2024-04-26T05:46:03.039Z,22.60
2024-04-26T05:47:03.194Z,22.64
2024-04-26T05:48:03.545Z,22.66
2024-04-26T05:49:03.565Z,22.70
2024-04-26T05:50:03.431Z,22.75
2024-04-26T05:51:03.607Z,22.80
2024-04-26T05:52:03.622Z,22.85
2024-04-26T05:53:03.671Z,22.90
2024-04-26T05:54:03.968Z,22.96
2024-04-26T05:55:03.834Z,23.01
2024-04-26T05:56:04.051Z,23.05
2024-04-26T05:57:04.217Z,23.12
2024-04-26T05:58:04.042Z,23.18
2024-04-26T05:59:04.150Z,23.29
2024-04-26T06:00:04.313Z,23.39
2024-04-26T06:01:04.384Z,23.51
2024-04-26T06:02:04.395Z,23.60
2024-04-26T06:03:04.589Z,23.68
2024-04-26T06:04:04.920Z,23.77
2024-04-26T06:05:04.660Z,23.83
2024-04-26T06:06:04.784Z,23.87
2024-04-26T06:07:04.810Z,23.92
2024-04-26T06:08:04.929Z,23.96
2024-04-26T06:09:05.081Z,23.99
2024-04-26T06:10:05.164Z,23.99
2024-04-26T06:11:05.346Z,24.01
2024-04-26T06:12:05.369Z,24.02
2024-04-26T06:13:13.773Z,24.05
2024-04-26T06:14:06.426Z,24.10
2024-04-26T06:15:05.582Z,24.13
2024-04-26T06:16:05.443Z,24.20
2024-04-26T06:17:05.446Z,24.22
2024-04-26T06:18:05.649Z,24.27
2024-04-26T06:19:05.625Z,24.32
2024-04-26T06:20:05.439Z,24.32
2024-04-26T06:21:05.548Z,24.34
2024-04-26T06:22:05.456Z,24.37
2024-04-26T06:23:05.470Z,24.39
2024-04-26T06:24:05.517Z,24.36
2024-04-26T06:25:05.485Z,24.36
2024-04-26T06:26:05.475Z,24.36
2024-04-26T06:27:05.592Z,24.37
2024-04-26T06:28:05.573Z,24.50
2024-04-26T06:29:05.623Z,24.53
2024-04-26T06:30:05.748Z,24.51
2024-04-26T06:31:05.690Z,24.52
2024-04-26T06:32:05.774Z,24.52
2024-04-26T06:33:05.934Z,24.51
2024-04-26T06:34:05.983Z,24.50
2024-04-26T06:35:07.489Z,24.51
2024-04-26T06:36:06.056Z,24.50
2024-04-26T06:37:06.037Z,24.52
2024-04-26T06:38:06.065Z,24.58
2024-04-26T06:39:06.238Z,24.60
2024-04-26T06:40:06.174Z,24.60
2024-04-26T06:41:06.273Z,24.61
2024-04-26T06:42:06.327Z,24.61
2024-04-26T06:43:06.287Z,24.60
2024-04-26T06:44:17.534Z,24.64
2024-04-26T06:45:07.450Z,24.64
2024-04-26T06:46:06.407Z,24.66
2024-04-26T06:47:06.454Z,24.68
2024-04-26T06:48:06.600Z,24.68
2024-04-26T06:49:06.588Z,24.66
2024-04-26T06:50:06.504Z,24.59
2024-04-26T06:51:06.497Z,24.52
2024-04-26T06:52:06.420Z,24.44
2024-04-26T06:53:06.398Z,24.35
2024-04-26T06:54:06.490Z,24.25
2024-04-26T06:55:06.412Z,24.15
2024-04-26T06:56:06.389Z,24.07
2024-04-26T06:57:06.437Z,24.00
2024-04-26T06:58:06.435Z,23.93
2024-04-26T06:59:06.418Z,23.87
2024-04-26T07:00:06.602Z,23.81
2024-04-26T07:01:08.281Z,23.76
2024-04-26T07:02:06.630Z,23.72
2024-04-26T07:03:06.825Z,23.66
2024-04-26T07:04:06.894Z,23.64
2024-04-26T07:05:06.868Z,23.59
2024-04-26T07:06:06.832Z,23.56
2024-04-26T07:07:06.875Z,23.54
2024-04-26T07:08:06.964Z,23.51
2024-04-26T07:09:07.103Z,23.49
2024-04-26T07:10:07.147Z,23.47
2024-04-26T07:11:07.249Z,23.45
2024-04-26T07:12:07.380Z,23.43
2024-04-26T07:13:07.369Z,23.41
2024-04-26T07:14:07.494Z,23.40
2024-04-26T07:15:07.670Z,23.39
2024-04-26T07:16:13.337Z,23.37
2024-04-26T07:17:08.677Z,23.36
2024-04-26T07:18:07.692Z,23.34
2024-04-26T07:19:07.802Z,23.34
2024-04-26T07:20:07.728Z,23.33
2024-04-26T07:21:07.672Z,23.31
2024-04-26T07:22:07.643Z,23.30
2024-04-26T07:23:07.647Z,23.30
2024-04-26T07:24:07.911Z,23.28
2024-04-26T07:25:07.686Z,23.27
2024-04-26T07:26:07.668Z,23.26
2024-04-26T07:27:07.854Z,23.26
2024-04-26T07:28:07.675Z,23.25
2024-04-26T07:29:18.686Z,23.25
2024-04-26T07:30:08.689Z,23.23
2024-04-26T07:31:07.696Z,23.23
2024-04-26T07:32:07.670Z,23.23
2024-04-26T07:33:07.885Z,23.22
2024-04-26T07:34:07.906Z,23.22
2024-04-26T07:35:07.720Z,23.21
2024-04-26T07:36:07.764Z,23.20
2024-04-26T07:37:07.761Z,23.20
2024-04-26T07:38:07.717Z,23.19
2024-04-26T07:39:07.856Z,23.18
2024-04-26T07:40:07.708Z,23.17
2024-04-26T07:41:07.793Z,23.17
2024-04-26T07:42:07.775Z,23.23
2024-04-26T07:43:07.811Z,23.30
2024-04-26T07:44:07.880Z,23.36
2024-04-26T07:45:07.895Z,23.43
2024-04-26T07:46:07.870Z,23.49
2024-04-26T07:47:07.922Z,23.56
2024-04-26T07:48:08.254Z,23.63
2024-04-26T07:49:09.897Z,23.69
2024-04-26T07:50:08.211Z,23.80
2024-04-26T07:51:08.296Z,23.95
2024-04-26T07:52:08.144Z,24.12
2024-04-26T07:53:08.198Z,24.28
2024-04-26T07:54:08.262Z,24.38
2024-04-26T07:55:08.270Z,24.44
2024-04-26T07:56:08.427Z,24.53
2024-04-26T07:57:08.484Z,24.57
2024-04-26T07:58:08.393Z,24.62
2024-04-26T07:59:08.447Z,24.68
2024-04-26T08:00:08.761Z,24.73
2024-04-26T08:01:08.559Z,24.73
2024-04-26T08:02:08.565Z,24.74
2024-04-26T08:03:08.771Z,24.74
2024-04-26T08:04:08.883Z,24.73
2024-04-26T08:05:08.966Z,24.73
2024-04-26T08:06:08.999Z,24.72
2024-04-26T08:07:09.026Z,24.73
2024-04-26T08:08:09.207Z,24.74
2024-04-26T08:09:09.291Z,24.74
2024-04-26T08:10:09.338Z,24.74
2024-04-26T08:11:09.483Z,24.73
2024-04-26T08:12:09.559Z,24.75
2024-04-26T08:13:09.581Z,24.80
2024-04-26T08:14:09.667Z,24.81
2024-04-26T08:15:11.257Z,24.82
2024-04-26T08:16:09.814Z,24.85
2024-04-26T08:17:09.884Z,24.92
2024-04-26T08:18:10.002Z,24.94
2024-04-26T08:19:10.155Z,24.96
2024-04-26T08:20:09.975Z,24.97
2024-04-26T08:21:10.259Z,24.98
2024-04-26T08:22:10.094Z,24.98
2024-04-26T08:23:10.161Z,24.96
2024-04-26T08:24:10.381Z,24.95
2024-04-26T08:25:18.958Z,24.95
2024-04-26T08:26:11.377Z,24.95
2024-04-26T08:27:10.431Z,25.00
2024-04-26T08:28:10.371Z,25.04
2024-04-26T08:29:10.387Z,25.05
2024-04-26T08:30:10.443Z,25.02
2024-04-26T08:31:10.405Z,25.04
2024-04-26T08:32:10.507Z,25.05
2024-04-26T08:33:11.813Z,25.12
2024-04-26T08:34:10.606Z,25.22
2024-04-26T08:35:10.574Z,25.33
2024-04-26T08:36:10.660Z,25.32
2024-04-26T08:37:10.691Z,25.28
2024-04-26T08:38:10.425Z,25.23
2024-04-26T08:39:10.528Z,25.19
2024-04-26T08:40:10.424Z,25.14
2024-04-26T08:41:10.515Z,25.08
2024-04-26T08:42:10.576Z,24.85
2024-04-26T08:43:10.504Z,24.63
2024-04-26T08:44:10.588Z,24.51
2024-04-26T08:45:10.681Z,24.46
2024-04-26T08:46:10.664Z,24.42
2024-04-26T08:47:10.729Z,24.40
2024-04-26T08:48:10.966Z,24.39
2024-04-26T08:49:11.035Z,24.39
2024-04-26T08:50:10.783Z,24.40
2024-04-26T08:51:10.852Z,24.41
2024-04-26T08:52:10.888Z,24.41
2024-04-26T08:53:10.882Z,24.21
2024-04-26T08:54:10.984Z,23.82
2024-04-26T08:55:10.973Z,23.65
2024-04-26T08:56:11.041Z,23.57
2024-04-26T08:57:11.295Z,23.53
2024-04-26T08:58:11.166Z,23.52
2024-04-26T08:59:11.184Z,23.48
2024-04-26T09:00:11.374Z,23.47
2024-04-26T09:01:11.357Z,23.45
2024-04-26T09:02:11.414Z,23.42
2024-04-26T09:03:11.463Z,23.42
2024-04-26T09:04:11.751Z,23.42
2024-04-26T09:05:11.626Z,23.42
2024-04-26T09:06:11.713Z,23.41
2024-04-26T09:07:11.665Z,23.40
2024-04-26T09:08:11.695Z,23.39
2024-04-26T09:09:11.837Z,23.35
2024-04-26T09:10:11.867Z,23.35
2024-04-26T09:11:11.859Z,23.33
2024-04-26T09:12:11.993Z,23.33
2024-04-26T09:13:12.059Z,23.27
2024-04-26T09:14:12.074Z,23.21
2024-04-26T09:15:12.166Z,23.15
2024-04-26T09:16:12.225Z,23.13
2024-04-26T09:17:12.457Z,23.12
2024-04-26T09:18:12.751Z,23.12
2024-04-26T09:19:13.356Z,23.14
2024-04-26T09:20:12.946Z,23.15
2024-04-26T09:21:13.254Z,23.17
2024-04-26T09:22:13.282Z,23.15
2024-04-26T09:23:13.458Z,23.09
2024-04-26T09:24:13.664Z,23.15
2024-04-26T09:25:13.763Z,23.17
2024-04-26T09:26:13.919Z,23.19
2024-04-26T09:27:14.222Z,23.20
2024-04-26T09:28:14.248Z,23.23
2024-04-26T09:29:14.405Z,23.30
2024-04-26T09:30:14.656Z,23.39
2024-04-26T09:31:14.688Z,23.45
2024-04-26T09:32:20.096Z,23.47
2024-04-26T09:33:16.127Z,23.45
2024-04-26T09:34:15.066Z,23.49
2024-04-26T09:35:15.138Z,23.54
2024-04-26T09:36:15.263Z,23.59
2024-04-26T09:37:15.191Z,23.66
2024-04-26T09:38:15.256Z,23.73
2024-04-26T09:39:15.484Z,23.79
2024-04-26T09:40:15.351Z,23.85
2024-04-26T09:41:15.380Z,23.92
2024-04-26T09:42:15.442Z,23.98
2024-04-26T09:43:15.445Z,24.02
2024-04-26T09:44:15.502Z,24.07
2024-04-26T09:45:15.785Z,23.93
2024-04-26T09:46:15.574Z,23.70
2024-04-26T09:47:15.725Z,23.25
2024-04-26T09:48:15.993Z,22.99
2024-04-26T09:49:16.154Z,22.89
2024-04-26T09:50:18.248Z,22.97
2024-04-26T09:51:16.177Z,23.04
2024-04-26T09:52:16.219Z,23.12
2024-04-26T09:53:16.322Z,23.22
2024-04-26T09:54:16.419Z,23.33
2024-04-26T09:55:16.454Z,23.44
2024-04-26T09:56:18.841Z,23.55
2024-04-26T09:57:16.621Z,23.63
2024-04-26T09:58:16.561Z,23.73
2024-04-26T09:59:16.625Z,23.83
2024-04-26T10:00:16.765Z,23.92
2024-04-26T10:01:16.740Z,24.02
2024-04-26T10:02:16.730Z,24.09
2024-04-26T10:03:16.863Z,24.16
2024-04-26T10:04:17.021Z,24.22
2024-04-26T10:05:16.873Z,24.28
2024-04-26T10:06:16.941Z,24.35
2024-04-26T10:07:16.863Z,24.41
2024-04-26T10:08:16.876Z,24.46
2024-04-26T10:09:16.970Z,24.52
2024-04-26T10:10:18.387Z,24.56
2024-04-26T10:11:22.191Z,24.61
2024-04-26T10:12:18.106Z,24.66
2024-04-26T10:13:17.021Z,24.69
2024-04-26T10:14:17.018Z,24.74
2024-04-26T10:15:17.117Z,24.80
2024-04-26T10:16:19.874Z,24.86
2024-04-26T10:17:17.136Z,24.91
2024-04-26T10:18:17.213Z,24.97
2024-04-26T10:19:17.298Z,25.03
2024-04-26T10:20:17.144Z,25.14
2024-04-26T10:21:17.143Z,25.24
2024-04-26T10:22:17.174Z,25.38
2024-04-26T10:23:17.186Z,25.48
2024-04-26T10:24:17.178Z,25.55
2024-04-26T10:25:17.223Z,25.60
2024-04-26T10:26:17.209Z,25.62
2024-04-26T10:27:17.230Z,25.61
2024-04-26T10:28:17.220Z,25.57
2024-04-26T10:29:17.283Z,25.54
2024-04-26T10:30:17.385Z,25.47
2024-04-26T10:31:17.261Z,25.35
2024-04-26T10:32:17.375Z,25.27
2024-04-26T10:33:17.483Z,25.18
2024-04-26T10:34:17.555Z,25.11
2024-04-26T10:35:17.339Z,25.02
2024-04-26T10:36:17.400Z,24.90
2024-04-26T10:37:17.507Z,24.77
2024-04-26T10:38:17.398Z,24.62
2024-04-26T10:39:17.468Z,24.52
2024-04-26T10:40:17.465Z,24.49
2024-04-26T10:41:17.533Z,24.45
2024-04-26T10:42:17.542Z,24.38
2024-04-26T10:43:17.555Z,24.37
2024-04-26T10:44:17.598Z,24.35
2024-04-26T10:45:17.689Z,24.29
2024-04-26T10:46:17.680Z,24.28
2024-04-26T10:47:17.712Z,24.26
2024-04-26T10:48:17.871Z,24.26
2024-04-26T10:49:17.933Z,24.24
2024-04-26T10:50:17.741Z,24.25
2024-04-26T10:51:17.894Z,24.23
2024-04-26T10:52:17.821Z,24.22
2024-04-26T10:53:17.830Z,24.22
2024-04-26T10:54:17.914Z,24.22
2024-04-26T10:55:17.906Z,24.23
2024-04-26T10:56:17.930Z,24.23
2024-04-26T10:57:17.983Z,24.24
2024-04-26T10:58:17.996Z,24.23
2024-04-26T10:59:18.175Z,24.21
2024-04-26T11:00:18.247Z,24.21
2024-04-26T11:01:18.520Z,24.22
2024-04-26T11:02:18.457Z,24.24
2024-04-26T11:03:18.715Z,24.27
2024-04-26T11:04:18.925Z,24.30
2024-04-26T11:05:18.905Z,24.30
2024-04-26T11:06:19.087Z,24.31
2024-04-26T11:07:19.126Z,24.30
2024-04-26T11:08:19.213Z,24.29
2024-04-26T11:09:19.571Z,24.28
2024-04-26T11:10:19.416Z,24.27
2024-04-26T11:11:19.698Z,24.28
2024-04-26T11:12:19.700Z,24.27
2024-04-26T11:13:19.777Z,24.25
2024-04-26T11:14:19.909Z,24.24
2024-04-26T11:15:20.153Z,24.21
2024-04-26T11:16:20.158Z,24.20
2024-04-26T11:17:20.306Z,24.18
2024-04-26T11:18:20.512Z,24.17
2024-04-26T11:19:20.747Z,24.12
2024-04-26T11:20:20.645Z,24.12
2024-04-26T11:21:20.794Z,24.16
2024-04-26T11:22:20.930Z,24.10
2024-04-26T11:23:21.069Z,24.09
2024-04-26T11:24:21.179Z,24.09
2024-04-26T11:25:21.332Z,24.10
2024-04-26T11:26:21.486Z,24.15
2024-04-26T11:27:21.677Z,24.20
2024-04-26T11:28:21.750Z,24.24
2024-04-26T11:29:22.343Z,24.27
2024-04-26T11:30:21.999Z,24.29
2024-04-26T11:31:22.107Z,24.26
2024-04-26T11:32:22.901Z,24.23
2024-04-26T11:33:25.443Z,24.17
2024-04-26T11:34:23.542Z,24.13
2024-04-26T11:35:22.464Z,24.12
2024-04-26T11:36:22.689Z,24.08
2024-04-26T11:37:22.528Z,24.04
2024-04-26T11:38:22.569Z,24.00
2024-04-26T11:39:22.640Z,23.99
2024-04-26T11:40:22.638Z,23.98
2024-04-26T11:41:22.668Z,23.98
2024-04-26T11:42:22.800Z,23.97
2024-04-26T11:43:22.830Z,23.96
2024-04-26T11:44:22.939Z,23.93
2024-04-26T11:45:23.129Z,23.92
2024-04-26T11:46:23.202Z,23.91
2024-04-26T11:47:23.479Z,23.90
2024-04-26T11:48:24.128Z,23.89
2024-04-26T11:49:23.783Z,23.88
2024-04-26T11:50:23.638Z,23.88
2024-04-26T11:51:23.890Z,23.86
2024-04-26T11:52:23.806Z,23.86
2024-04-26T11:53:23.865Z,23.87
2024-04-26T11:54:24.032Z,23.85
2024-04-26T11:55:24.033Z,23.85
2024-04-26T11:56:24.084Z,23.82
2024-04-26T11:57:24.269Z,23.80
2024-04-26T11:58:24.275Z,23.80
2024-04-26T11:59:24.381Z,23.79
2024-04-26T12:00:24.537Z,23.79
2024-04-26T12:01:24.639Z,23.80
2024-04-26T12:02:24.727Z,23.78
2024-04-26T12:03:24.994Z,23.76
2024-04-26T12:04:25.121Z,23.76
2024-04-26T12:05:25.385Z,23.76
2024-04-26T12:06:25.423Z,23.73
2024-04-26T12:07:25.446Z,23.72
2024-04-26T12:08:28.609Z,23.72
2024-04-26T12:09:26.642Z,23.73
2024-04-26T12:10:25.627Z,23.74
2024-04-26T12:11:25.803Z,23.76
2024-04-26T12:12:25.806Z,23.78
2024-04-26T12:13:25.857Z,23.79
2024-04-26T12:14:25.879Z,23.81
2024-04-26T12:15:25.894Z,23.84
2024-04-26T12:16:25.916Z,23.85
2024-04-26T12:17:26.059Z,23.87
2024-04-26T12:18:26.079Z,23.88
2024-04-26T12:19:25.976Z,23.90
2024-04-26T12:20:26.029Z,23.92
2024-04-26T12:21:26.091Z,23.93
2024-04-26T12:22:26.131Z,23.95
2024-04-26T12:23:26.253Z,23.95
2024-04-26T12:24:26.392Z,23.97
2024-04-26T12:25:26.350Z,23.98
2024-04-26T12:26:26.714Z,24.00
2024-04-26T12:27:26.589Z,24.01
2024-04-26T12:28:26.566Z,24.02
2024-04-26T12:29:26.670Z,24.03
2024-04-26T12:30:26.854Z,24.04
2024-04-26T12:31:26.865Z,24.05
2024-04-26T12:32:27.023Z,24.06
2024-04-26T12:33:27.175Z,24.06
2024-04-26T12:34:27.475Z,24.08
2024-04-26T12:35:27.345Z,24.08
2024-04-26T12:36:27.466Z,24.09
2024-04-26T12:37:27.555Z,24.10
2024-04-26T12:38:27.704Z,24.11
2024-04-26T12:39:27.847Z,24.11
2024-04-26T12:40:27.933Z,24.13
2024-04-26T12:41:28.080Z,24.14
2024-04-26T12:42:28.203Z,24.14
2024-04-26T12:43:28.283Z,24.15
2024-04-26T12:44:28.458Z,24.16
2024-04-26T12:45:28.543Z,24.16
2024-04-26T12:46:28.659Z,24.17
2024-04-26T12:47:28.863Z,24.18
2024-04-26T12:48:29.009Z,24.19
2024-04-26T12:49:29.071Z,24.19
2024-04-26T12:50:29.162Z,24.20
2024-04-26T12:51:29.198Z,24.22
2024-04-26T12:52:29.322Z,24.22
2024-04-26T12:53:29.512Z,24.23